createdAt,value
2023-04-25T00:00:11.504Z,86.02
2023-04-25T00:02:38.429Z,85.87
2023-04-25T00:05:06.219Z,86.02
2023-04-25T00:07:35.178Z,86.60
2023-04-25T00:10:04.316Z,86.40
2023-04-25T00:12:31.220Z,86.97
2023-04-25T00:14:58.071Z,87.34
2023-04-25T00:17:28.057Z,86.88
2023-04-25T00:19:57.657Z,87.08
2023-04-25T00:22:24.626Z,86.98
2023-04-25T00:24:54.657Z,86.91
2023-04-25T00:27:21.518Z,86.83
2023-04-25T00:29:48.413Z,87.06
2023-04-25T00:32:15.139Z,87.32
2023-04-25T00:34:41.896Z,87.30
2023-04-25T00:37:08.581Z,86.86
2023-04-25T00:39:35.270Z,87.33
2023-04-25T00:42:03.026Z,87.39
2023-04-25T00:44:31.705Z,87.75
2023-04-25T00:47:01.108Z,87.47
2023-04-25T00:49:27.854Z,88.08
2023-04-25T00:51:55.584Z,87.93
2023-04-25T00:54:22.302Z,88.12
2023-04-25T00:56:48.955Z,87.87
2023-04-25T00:59:16.437Z,87.88
2023-04-25T01:01:45.185Z,87.95
2023-04-25T01:04:12.259Z,88.27
2023-04-25T01:06:39.445Z,88.13
2023-04-25T01:09:06.589Z,88.15
2023-04-25T01:11:33.299Z,88.62
2023-04-25T01:14:03.039Z,88.32
2023-04-25T01:16:30.929Z,87.85
2023-04-25T01:18:57.719Z,88.11
2023-04-25T01:21:27.276Z,87.79
2023-04-25T01:23:55.308Z,87.76
2023-04-25T01:26:22.584Z,87.55
2023-04-25T01:28:49.987Z,87.59
2023-04-25T01:31:18.032Z,87.60
2023-04-25T01:33:45.260Z,87.74
2023-04-25T01:36:12.335Z,87.33
2023-04-25T01:38:42.488Z,87.31
2023-04-25T01:41:09.311Z,87.34
2023-04-25T01:43:36.679Z,87.88
2023-04-25T01:46:03.654Z,87.66
2023-04-25T01:48:30.583Z,88.12
2023-04-25T01:50:57.243Z,87.73
2023-04-25T01:53:24.844Z,88.10
2023-04-25T01:55:51.696Z,88.45
2023-04-25T01:58:18.415Z,88.17
2023-04-25T02:00:45.796Z,88.31
2023-04-25T02:03:12.607Z,88.26
2023-04-25T02:05:40.595Z,88.22
2023-04-25T02:08:13.522Z,88.08
2023-04-25T02:10:42.444Z,88.44
2023-04-25T02:13:09.118Z,87.99
2023-04-25T02:15:38.519Z,88.88
2023-04-25T02:18:07.938Z,88.41
2023-04-25T02:20:35.860Z,88.78
2023-04-25T02:23:02.960Z,88.87
2023-04-25T02:25:29.751Z,88.46
2023-04-25T02:27:56.472Z,88.59
2023-04-25T02:30:25.315Z,88.63
2023-04-25T02:32:54.300Z,88.91
2023-04-25T02:35:23.297Z,88.82
2023-04-25T02:37:52.167Z,89.59
2023-04-25T02:40:21.522Z,89.00
2023-04-25T02:42:48.101Z,89.89
2023-04-25T02:45:17.578Z,89.97
2023-04-25T02:47:46.701Z,90.20
2023-04-25T02:50:16.003Z,90.15
2023-04-25T02:52:45.149Z,89.98
2023-04-25T02:55:12.034Z,90.36
2023-04-25T02:57:38.893Z,90.08
2023-04-25T03:00:06.793Z,90.10
2023-04-25T03:02:33.414Z,89.78
2023-04-25T03:05:00.029Z,89.24
2023-04-25T03:07:26.693Z,89.28
2023-04-25T03:09:56.669Z,89.68
2023-04-25T03:12:26.187Z,89.34
2023-04-25T03:14:55.018Z,89.04
2023-04-25T03:17:26.568Z,89.43
2023-04-25T03:19:53.234Z,89.55
2023-04-25T03:22:20.007Z,89.29
2023-04-25T03:24:46.808Z,89.24
2023-04-25T03:27:13.611Z,89.31
2023-04-25T03:29:41.639Z,89.90
2023-04-25T03:32:10.564Z,89.64
2023-04-25T03:34:37.419Z,89.87
2023-04-25T03:37:04.170Z,90.58
2023-04-25T03:39:31.029Z,90.43
2023-04-25T03:41:57.616Z,90.53
2023-04-25T03:44:25.553Z,89.85
2023-04-25T03:46:52.208Z,90.20
2023-04-25T03:49:21.219Z,90.27
2023-04-25T03:51:47.846Z,89.56
2023-04-25T03:54:14.618Z,90.46
2023-04-25T03:56:41.314Z,90.00
2023-04-25T03:59:10.299Z,90.23
2023-04-25T04:01:39.349Z,89.95
2023-04-25T04:04:06.093Z,90.60
2023-04-25T04:06:33.245Z,90.49
2023-04-25T04:08:59.882Z,90.06
2023-04-25T04:11:27.061Z,90.48
2023-04-25T04:13:53.826Z,90.28
2023-04-25T04:16:20.619Z,90.43
2023-04-25T04:18:49.844Z,90.43
2023-04-25T04:21:19.003Z,89.93
2023-04-25T04:23:45.866Z,90.07
2023-04-25T04:26:14.052Z,89.64
2023-04-25T04:28:40.955Z,89.59
2023-04-25T04:31:08.887Z,89.72
2023-04-25T04:33:35.852Z,89.83
2023-04-25T04:36:03.824Z,89.60
2023-04-25T04:38:33.699Z,89.62
2023-04-25T04:41:00.501Z,89.29
2023-04-25T04:43:27.170Z,89.48
2023-04-25T04:45:57.412Z,88.81
2023-04-25T04:48:24.041Z,89.24
2023-04-25T04:50:50.827Z,89.00
2023-04-25T04:53:17.568Z,89.05
2023-04-25T04:55:44.241Z,88.75
2023-04-25T04:58:17.389Z,88.71
2023-04-25T05:00:46.295Z,88.24
2023-04-25T05:03:13.157Z,87.67
2023-04-25T05:05:42.910Z,87.62
2023-04-25T05:08:09.514Z,87.25
2023-04-25T05:10:36.405Z,86.87
2023-04-25T05:13:05.756Z,86.76
2023-04-25T05:15:34.899Z,86.75
2023-04-25T05:18:02.541Z,86.45
2023-04-25T05:20:31.644Z,86.15
2023-04-25T05:22:58.353Z,85.90
2023-04-25T05:25:24.988Z,85.63
2023-04-25T05:27:53.469Z,85.53
2023-04-25T05:30:22.749Z,84.89
2023-04-25T05:32:49.513Z,84.46
2023-04-25T05:35:16.379Z,84.19
2023-04-25T05:37:47.937Z,83.33
2023-04-25T05:40:14.834Z,83.02
2023-04-25T05:42:41.477Z,82.54
2023-04-25T05:45:10.669Z,82.25
2023-04-25T05:47:37.679Z,81.77
2023-04-25T05:50:04.913Z,81.82
2023-04-25T05:52:31.643Z,71.92
2023-04-25T05:54:58.225Z,63.13
2023-04-25T05:57:26.478Z,58.23
2023-04-25T05:59:53.912Z,56.06
2023-04-25T06:02:22.132Z,58.53
2023-04-25T06:04:53.667Z,62.94
2023-04-25T06:07:23.343Z,65.40
2023-04-25T06:09:52.413Z,67.40
2023-04-25T06:12:19.090Z,65.22
2023-04-25T06:14:45.982Z,60.07
2023-04-25T06:17:12.669Z,53.87
2023-04-25T06:19:39.433Z,51.08
2023-04-25T06:22:08.675Z,49.51
2023-04-25T06:24:35.848Z,47.82
2023-04-25T06:27:02.522Z,45.09
2023-04-25T06:29:29.349Z,42.71
2023-04-25T06:31:56.027Z,41.65
2023-04-25T06:34:22.928Z,40.92
2023-04-25T06:36:49.647Z,40.14
2023-04-25T06:39:16.372Z,40.94
2023-04-25T06:41:43.102Z,43.95
2023-04-25T06:44:09.885Z,44.25
2023-04-25T06:46:39.097Z,40.72
2023-04-25T06:49:05.937Z,39.15
2023-04-25T06:51:32.775Z,39.80
2023-04-25T06:54:01.899Z,37.81
2023-04-25T06:56:30.803Z,37.41
2023-04-25T06:58:57.682Z,35.93
2023-04-25T07:01:27.075Z,38.48
2023-04-25T07:03:56.457Z,43.59
2023-04-25T07:06:26.964Z,44.05
2023-04-25T07:08:53.758Z,43.13
2023-04-25T07:11:22.702Z,42.42
2023-04-25T07:13:49.350Z,42.02
2023-04-25T07:16:18.619Z,39.38
2023-04-25T07:18:45.701Z,38.69
2023-04-25T07:21:12.392Z,37.37
2023-04-25T07:23:41.768Z,36.59
2023-04-25T07:26:08.974Z,38.84
2023-04-25T07:28:35.909Z,38.87
2023-04-25T07:31:02.659Z,37.50
2023-04-25T07:33:29.927Z,36.37
2023-04-25T07:35:56.972Z,34.74
2023-04-25T07:38:23.795Z,34.78
2023-04-25T07:40:50.869Z,38.68
2023-04-25T07:43:18.020Z,41.11
2023-04-25T07:45:45.554Z,44.03
2023-04-25T07:48:12.319Z,46.85
2023-04-25T07:50:39.155Z,48.41
2023-04-25T07:53:05.754Z,49.71
2023-04-25T07:55:32.385Z,50.90
2023-04-25T07:58:01.274Z,51.87
2023-04-25T08:00:30.359Z,52.47
2023-04-25T08:02:59.393Z,53.06
2023-04-25T08:05:26.423Z,53.38
2023-04-25T08:07:53.399Z,54.58
2023-04-25T08:10:20.082Z,55.07
2023-04-25T08:12:46.827Z,55.46
2023-04-25T08:15:14.845Z,55.00
2023-04-25T08:17:45.038Z,55.17
2023-04-25T08:20:12.379Z,55.30
2023-04-25T08:22:38.992Z,55.07
2023-04-25T08:25:06.017Z,54.86
2023-04-25T08:27:32.627Z,54.46
2023-04-25T08:29:59.788Z,54.16
2023-04-25T08:32:28.463Z,54.04
2023-04-25T08:34:56.458Z,54.08
2023-04-25T08:37:25.952Z,53.47
2023-04-25T08:39:54.951Z,52.81
2023-04-25T08:42:22.881Z,51.85
2023-04-25T08:44:51.076Z,46.95
2023-04-25T08:47:22.893Z,45.26
2023-04-25T08:49:53.336Z,43.76
2023-04-25T08:52:24.925Z,43.45
2023-04-25T08:54:55.465Z,42.69
2023-04-25T08:57:22.909Z,40.97
2023-04-25T08:59:53.188Z,41.02
2023-04-25T09:02:21.983Z,40.65
2023-04-25T09:04:49.602Z,42.42
2023-04-25T09:07:22.146Z,47.06
2023-04-25T09:09:48.796Z,51.21
2023-04-25T09:12:15.462Z,53.79
2023-04-25T09:14:44.900Z,55.42
2023-04-25T09:17:11.876Z,56.88
2023-04-25T09:19:42.287Z,57.57
2023-04-25T09:22:12.255Z,57.95
2023-04-25T09:24:41.713Z,56.62
2023-04-25T09:27:19.723Z,54.59
2023-04-25T09:29:48.682Z,52.38
2023-04-25T09:32:23.236Z,51.40
2023-04-25T09:34:55.206Z,51.98
2023-04-25T09:37:23.989Z,49.56
2023-04-25T09:39:55.248Z,49.54
2023-04-25T09:42:27.770Z,49.46
2023-04-25T09:44:56.293Z,50.15
2023-04-25T09:47:27.964Z,49.69
2023-04-25T09:49:56.104Z,49.02
2023-04-25T09:52:26.544Z,48.48
2023-04-25T09:54:53.902Z,48.38
2023-04-25T09:57:27.030Z,48.42
2023-04-25T09:59:55.634Z,48.29
2023-04-25T10:02:24.733Z,47.53
2023-04-25T10:04:55.985Z,47.65
2023-04-25T10:07:27.106Z,48.11
2023-04-25T10:10:02.887Z,48.09
2023-04-25T10:12:33.762Z,47.55
2023-04-25T10:15:01.514Z,46.80
2023-04-25T10:17:31.251Z,46.00
2023-04-25T10:19:58.497Z,47.18
2023-04-25T10:22:32.161Z,47.33
2023-04-25T10:24:59.353Z,46.84
2023-04-25T10:27:29.171Z,46.45
2023-04-25T10:30:16.428Z,45.64
2023-04-25T10:32:46.093Z,45.97
2023-04-25T10:35:14.324Z,46.00
2023-04-25T10:38:05.619Z,47.05
2023-04-25T10:40:33.244Z,47.94
2023-04-25T10:43:38.000Z,49.49
2023-04-25T10:46:20.814Z,51.27
2023-04-25T10:48:51.530Z,51.77
2023-04-25T10:51:26.543Z,52.03
2023-04-25T10:53:56.411Z,52.00
2023-04-25T10:56:35.157Z,52.12
2023-04-25T10:59:16.278Z,51.74
2023-04-25T11:01:52.892Z,51.37
2023-04-25T11:04:24.825Z,50.30
2023-04-25T11:07:36.589Z,50.34
2023-04-25T11:10:07.364Z,50.12
2023-04-25T11:12:36.469Z,50.24
2023-04-25T11:15:10.493Z,50.16
2023-04-25T11:17:37.183Z,49.73
2023-04-25T11:20:08.417Z,49.81
2023-04-25T11:22:38.348Z,49.80
2023-04-25T11:25:09.771Z,49.33
2023-04-25T11:27:53.670Z,48.38
2023-04-25T11:30:23.600Z,48.20
2023-04-25T11:32:51.013Z,48.09
2023-04-25T11:35:17.733Z,47.71
2023-04-25T11:37:45.227Z,47.35
2023-04-25T11:40:12.879Z,47.39
2023-04-25T11:42:47.323Z,47.56
2023-04-25T11:45:15.064Z,47.82
2023-04-25T11:47:41.976Z,48.26
2023-04-25T11:50:09.568Z,47.96
2023-04-25T11:52:49.195Z,46.90
2023-04-25T11:55:16.620Z,44.79
2023-04-25T11:57:44.995Z,43.86
2023-04-25T12:00:20.206Z,42.96
2023-04-25T12:02:49.102Z,43.94
2023-04-25T12:05:30.968Z,42.16
2023-04-25T12:07:59.207Z,43.14
2023-04-25T12:10:26.921Z,42.96
2023-04-25T12:12:53.841Z,43.37
2023-04-25T12:15:26.201Z,43.59
2023-04-25T12:17:54.986Z,44.16
2023-04-25T12:20:32.990Z,44.26
2023-04-25T12:22:59.557Z,43.96
2023-04-25T12:25:42.945Z,44.59
2023-04-25T12:28:24.677Z,46.17
2023-04-25T12:31:05.663Z,47.13
2023-04-25T12:33:34.670Z,47.54
2023-04-25T12:36:09.532Z,47.81
2023-04-25T12:38:45.083Z,47.84
2023-04-25T12:41:13.073Z,48.04
2023-04-25T12:43:42.130Z,47.89
2023-04-25T12:46:09.470Z,47.65
2023-04-25T12:48:36.155Z,47.61
2023-04-25T12:51:02.745Z,46.92
2023-04-25T12:53:29.379Z,46.64
2023-04-25T12:58:22.495Z,45.88
2023-04-25T13:00:49.535Z,45.63
2023-04-25T13:03:19.157Z,45.48
2023-04-25T13:05:45.837Z,45.87
2023-04-25T13:08:12.562Z,46.03
2023-04-25T13:10:43.982Z,46.33
2023-04-25T13:13:10.630Z,46.38
2023-04-25T13:15:37.583Z,47.16
2023-04-25T13:18:06.625Z,46.54
2023-04-25T13:20:36.765Z,45.30
2023-04-25T13:23:03.426Z,44.67
2023-04-25T13:25:30.132Z,45.28
2023-04-25T13:27:56.917Z,46.95
2023-04-25T13:30:23.527Z,48.61
2023-04-25T13:32:50.323Z,49.16
2023-04-25T13:35:18.090Z,48.97
2023-04-25T13:37:47.213Z,49.22
2023-04-25T13:40:16.193Z,49.17
2023-04-25T13:42:46.378Z,48.71
2023-04-25T13:45:13.215Z,48.56
2023-04-25T13:47:42.191Z,48.49
2023-04-25T13:50:09.345Z,48.60
2023-04-25T13:52:36.150Z,48.43
2023-04-25T13:55:04.769Z,48.86
2023-04-25T13:57:39.388Z,48.94
2023-04-25T14:00:09.896Z,48.47
2023-04-25T14:02:39.745Z,48.94
2023-04-25T14:05:07.902Z,48.89
2023-04-25T14:07:37.697Z,48.71
2023-04-25T14:10:05.936Z,47.92
2023-04-25T14:12:33.518Z,48.27
2023-04-25T14:15:05.352Z,48.38
2023-04-25T14:17:34.360Z,48.89
2023-04-25T14:20:01.046Z,49.29
2023-04-25T14:22:30.108Z,49.84
2023-04-25T14:24:59.160Z,49.29
2023-04-25T14:27:28.607Z,49.87
2023-04-25T14:29:55.863Z,49.16
2023-04-25T14:32:22.910Z,49.18
2023-04-25T14:34:49.620Z,49.97
2023-04-25T14:37:16.271Z,49.81
2023-04-25T14:39:46.452Z,50.16
2023-04-25T14:42:13.145Z,50.07
2023-04-25T14:44:39.719Z,50.06
2023-04-25T14:47:06.611Z,49.53
2023-04-25T14:49:35.823Z,48.25
2023-04-25T14:52:02.966Z,46.81
2023-04-25T14:54:29.584Z,47.03
2023-04-25T14:56:58.702Z,47.65
2023-04-25T14:59:29.231Z,47.53
2023-04-25T15:01:59.788Z,47.42
2023-04-25T15:04:27.128Z,47.12
2023-04-25T15:06:56.304Z,47.32
2023-04-25T15:09:24.963Z,47.01
2023-04-25T15:11:52.235Z,47.54
2023-04-25T15:14:19.073Z,48.09
2023-04-25T15:16:47.901Z,47.54
2023-04-25T15:19:14.569Z,47.04
2023-04-25T15:21:44.130Z,45.93
2023-04-25T15:24:12.159Z,45.68
2023-04-25T15:26:41.020Z,45.07
2023-04-25T15:29:07.806Z,44.81
2023-04-25T15:31:36.805Z,45.44
2023-04-25T15:34:03.558Z,45.71
2023-04-25T15:36:31.382Z,46.42
2023-04-25T15:38:58.329Z,46.60
2023-04-25T15:41:26.373Z,47.36
2023-04-25T15:43:55.762Z,47.58
2023-04-25T15:46:25.070Z,47.54
2023-04-25T15:48:52.133Z,47.26
2023-04-25T15:51:18.732Z,47.41
2023-04-25T15:53:47.627Z,47.15
2023-04-25T15:56:14.306Z,46.74
2023-04-25T15:58:40.872Z,46.60
2023-04-25T16:01:07.498Z,46.20
2023-04-25T16:03:36.203Z,46.39
2023-04-25T16:06:06.047Z,46.25
2023-04-25T16:08:35.913Z,46.57
2023-04-25T16:11:03.348Z,47.05
2023-04-25T16:13:30.218Z,46.75
2023-04-25T16:16:02.150Z,46.57
2023-04-25T16:18:31.191Z,47.05
2023-04-25T16:20:57.816Z,47.04
2023-04-25T16:23:24.480Z,47.39
2023-04-25T16:25:54.942Z,47.31
2023-04-25T16:28:26.416Z,47.04
2023-04-25T16:30:53.072Z,47.40
2023-04-25T16:33:19.718Z,47.55
2023-04-25T16:35:46.337Z,47.55
2023-04-25T16:38:14.966Z,47.69
2023-04-25T16:40:41.622Z,47.44
2023-04-25T16:43:08.190Z,47.55
2023-04-25T16:45:34.797Z,48.08
2023-04-25T16:48:01.398Z,48.59
2023-04-25T16:50:27.956Z,48.10
2023-04-25T16:52:54.697Z,48.08
2023-04-25T16:55:23.585Z,48.38
2023-04-25T16:57:52.526Z,48.92
2023-04-25T17:00:19.495Z,48.00
2023-04-25T17:02:46.308Z,48.07
2023-04-25T17:05:13.629Z,47.44
2023-04-25T17:07:42.855Z,46.93
2023-04-25T17:10:09.986Z,47.14
2023-04-25T17:12:39.198Z,47.35
2023-04-25T17:15:06.624Z,48.33
2023-04-25T17:17:33.321Z,48.73
2023-04-25T17:20:02.325Z,48.81
2023-04-25T17:22:29.041Z,48.85
2023-04-25T17:24:55.638Z,49.21
2023-04-25T17:27:24.360Z,49.83
2023-04-25T17:29:51.296Z,49.83
2023-04-25T17:32:20.518Z,49.98
2023-04-25T17:34:48.535Z,49.98
2023-04-25T17:37:17.309Z,49.99
2023-04-25T17:39:44.524Z,50.87
2023-04-25T17:42:15.086Z,50.70
2023-04-25T17:44:43.197Z,51.19
2023-04-25T17:47:12.659Z,51.53
2023-04-25T17:49:39.607Z,51.22
2023-04-25T17:52:07.340Z,51.27
2023-04-25T17:54:35.604Z,51.39
2023-04-25T17:57:02.669Z,51.48
2023-04-25T17:59:32.374Z,51.48
2023-04-25T18:02:01.492Z,51.39
2023-04-25T18:04:31.005Z,51.33
2023-04-25T18:07:00.251Z,51.86
2023-04-25T18:09:27.883Z,51.38
2023-04-25T18:11:54.766Z,51.64
2023-04-25T18:14:22.856Z,51.95
2023-04-25T18:16:55.524Z,51.82
2023-04-25T18:19:23.332Z,52.10
2023-04-25T18:21:54.494Z,52.40
2023-04-25T18:24:22.568Z,52.61
2023-04-25T18:26:49.898Z,52.37
2023-04-25T18:29:31.393Z,52.66
2023-04-25T18:32:00.653Z,52.85
2023-04-25T18:34:29.860Z,53.38
2023-04-25T18:36:59.284Z,53.34
2023-04-25T18:39:27.752Z,53.50
2023-04-25T18:42:01.330Z,53.34
2023-04-25T18:44:33.708Z,53.94
2023-04-25T18:47:00.884Z,53.80
2023-04-25T18:49:27.497Z,54.13
2023-04-25T18:51:57.712Z,54.35
2023-04-25T18:54:24.410Z,54.39
2023-04-25T18:56:55.721Z,54.92
2023-04-25T18:59:22.367Z,55.05
2023-04-25T19:01:52.027Z,55.28
2023-04-25T19:04:18.733Z,55.44
2023-04-25T19:06:46.418Z,55.64
2023-04-25T19:09:15.518Z,56.09
2023-04-25T19:11:42.249Z,55.88
2023-04-25T19:14:08.857Z,55.76
2023-04-25T19:16:38.915Z,55.78
2023-04-25T19:19:09.641Z,55.81
2023-04-25T19:21:41.625Z,56.31
2023-04-25T19:24:08.721Z,56.37
2023-04-25T19:26:35.725Z,56.31
2023-04-25T19:29:10.330Z,57.13
2023-04-25T19:31:38.818Z,56.96
2023-04-25T19:34:06.730Z,57.18
2023-04-25T19:36:33.943Z,57.45
2023-04-25T19:39:04.479Z,57.74
2023-04-25T19:41:35.864Z,57.81
2023-04-25T19:44:07.194Z,57.87
2023-04-25T19:46:40.047Z,58.14
2023-04-25T19:49:07.836Z,58.37
2023-04-25T19:51:37.804Z,58.34
2023-04-25T19:54:06.902Z,58.96
2023-04-25T19:56:35.797Z,59.34
2023-04-25T19:59:02.747Z,59.42
2023-04-25T20:01:31.919Z,59.75
2023-04-25T20:03:58.600Z,59.59
2023-04-25T20:06:25.485Z,60.14
2023-04-25T20:08:57.842Z,60.62
2023-04-25T20:11:24.681Z,60.41
2023-04-25T20:13:53.990Z,60.51
2023-04-25T20:16:23.267Z,60.97
2023-04-25T20:18:55.915Z,61.41
2023-04-25T20:21:25.497Z,61.30
2023-04-25T20:23:52.309Z,61.67
2023-04-25T20:26:19.982Z,61.86
2023-04-25T20:28:48.166Z,62.23
2023-04-25T20:31:14.999Z,62.02
2023-04-25T20:33:43.849Z,62.30
2023-04-25T20:36:10.667Z,62.23
2023-04-25T20:38:37.786Z,63.06
2023-04-25T20:41:07.378Z,63.42
2023-04-25T20:43:37.559Z,63.22
2023-04-25T20:46:04.765Z,63.17
2023-04-25T20:48:31.635Z,63.47
2023-04-25T20:51:00.676Z,63.55
2023-04-25T20:53:35.175Z,63.25
2023-04-25T20:56:02.708Z,63.62
2023-04-25T20:58:32.107Z,64.16
2023-04-25T21:00:59.234Z,64.28
2023-04-25T21:03:26.530Z,64.31
2023-04-25T21:05:53.792Z,64.46
2023-04-25T21:08:20.974Z,64.72
2023-04-25T21:10:47.834Z,64.73
2023-04-25T21:13:17.660Z,64.86
2023-04-25T21:15:47.038Z,65.25
2023-04-25T21:18:17.772Z,65.65
2023-04-25T21:20:46.560Z,65.80
2023-04-25T21:23:15.914Z,65.39
2023-04-25T21:25:43.239Z,66.33
2023-04-25T21:28:12.693Z,66.13
2023-04-25T21:30:39.968Z,66.49
2023-04-25T21:33:07.017Z,66.41
2023-04-25T21:35:34.285Z,66.88
2023-04-25T21:38:01.222Z,66.71
2023-04-25T21:40:30.471Z,66.87
2023-04-25T21:42:57.320Z,66.89
2023-04-25T21:45:24.685Z,67.13
2023-04-25T21:47:51.751Z,67.25
2023-04-25T21:50:19.749Z,67.23
2023-04-25T21:52:49.408Z,67.49
2023-04-25T21:55:17.130Z,67.79
2023-04-25T21:57:43.908Z,68.02
2023-04-25T22:00:21.344Z,68.20
2023-04-25T22:02:48.949Z,67.88
2023-04-25T22:05:22.624Z,68.14
2023-04-25T22:07:51.290Z,68.30
2023-04-25T22:10:20.617Z,68.73
2023-04-25T22:12:50.879Z,69.11
2023-04-25T22:15:24.109Z,68.85
2023-04-25T22:17:52.529Z,68.74
2023-04-25T22:20:23.318Z,68.78
2023-04-25T22:22:53.586Z,68.64
2023-04-25T22:25:21.441Z,68.75
2023-04-25T22:27:51.559Z,69.02
2023-04-25T22:30:21.754Z,68.49
2023-04-25T22:32:48.690Z,69.42
2023-04-25T22:35:15.633Z,68.58
2023-04-25T22:37:42.499Z,68.55
2023-04-25T22:40:12.332Z,69.50
2023-04-25T22:42:43.330Z,69.84
2023-04-25T22:45:11.266Z,69.60
2023-04-25T22:47:41.087Z,70.33
2023-04-25T22:50:13.071Z,70.30
2023-04-25T22:52:42.112Z,70.14
2023-04-25T22:55:10.609Z,70.79
2023-04-25T22:57:40.213Z,70.32
2023-04-25T23:00:16.183Z,70.81
2023-04-25T23:02:47.376Z,70.99
2023-04-25T23:05:15.412Z,70.83
2023-04-25T23:07:44.198Z,71.34
2023-04-25T23:10:12.236Z,71.22
2023-04-25T23:12:40.357Z,71.09
2023-04-25T23:15:08.412Z,71.45
2023-04-25T23:17:38.240Z,71.67
2023-04-25T23:20:07.976Z,71.72
2023-04-25T23:22:35.198Z,71.66
2023-04-25T23:25:02.665Z,72.65
2023-04-25T23:27:29.600Z,72.11
2023-04-25T23:29:56.943Z,72.10
2023-04-25T23:32:25.806Z,72.29
2023-04-25T23:34:52.806Z,72.67
2023-04-25T23:37:19.747Z,72.64
2023-04-25T23:39:52.670Z,73.31
2023-04-25T23:42:19.504Z,72.70
2023-04-25T23:44:48.452Z,72.84
2023-04-25T23:47:17.848Z,73.15
2023-04-25T23:49:45.222Z,73.18
2023-04-25T23:52:12.612Z,73.77
2023-04-25T23:54:39.502Z,73.37
2023-04-25T23:57:06.332Z,73.80
2023-04-25T23:59:33.506Z,73.17
